createdAt,value
2022-12-24T00:00:47.130Z,100.00
2022-12-24T00:05:48.762Z,100.00
2022-12-24T00:10:52.180Z,100.00
2022-12-24T00:15:53.807Z,97.11
2022-12-24T00:20:55.469Z,95.68
2022-12-24T00:25:57.072Z,95.26
2022-12-24T00:30:59.849Z,94.90
2022-12-24T00:36:01.562Z,94.17
2022-12-24T00:41:05.704Z,97.35
2022-12-24T00:46:07.347Z,98.27
2022-12-24T00:51:09.004Z,99.87
2022-12-24T00:56:10.650Z,98.94
2022-12-24T01:01:12.681Z,98.09
2022-12-24T01:06:18.264Z,98.93
2022-12-24T01:11:19.959Z,97.66
2022-12-24T01:16:21.820Z,95.71
2022-12-24T01:21:23.570Z,93.76
2022-12-24T01:26:25.225Z,93.25
2022-12-24T01:31:26.929Z,91.63
2022-12-24T01:36:28.588Z,91.19
2022-12-24T01:41:50.169Z,91.71
2022-12-24T01:47:04.802Z,92.13
2022-12-24T01:52:09.664Z,91.24
2022-12-24T01:57:18.427Z,91.10
2022-12-24T02:02:20.551Z,91.41
2022-12-24T02:07:23.084Z,90.45
2022-12-24T02:12:26.469Z,91.58
2022-12-24T02:17:43.372Z,92.73
2022-12-24T02:22:50.723Z,92.78
2022-12-24T02:27:58.272Z,92.87
2022-12-24T02:33:02.668Z,93.34
2022-12-24T02:38:07.587Z,92.16
2022-12-24T02:43:20.282Z,90.46
2022-12-24T02:48:23.729Z,90.53
2022-12-24T02:53:25.412Z,91.02
2022-12-24T02:58:42.128Z,92.04
2022-12-24T03:03:46.670Z,93.25
2022-12-24T03:08:55.094Z,92.51
2022-12-24T03:13:58.853Z,93.77
2022-12-24T03:19:01.098Z,92.63
2022-12-24T03:24:02.883Z,92.16
2022-12-24T03:29:09.100Z,92.21
2022-12-24T03:34:11.782Z,92.16
2022-12-24T03:39:13.568Z,92.23
2022-12-24T03:44:15.281Z,92.18
2022-12-24T03:49:16.934Z,91.56
2022-12-24T03:54:18.557Z,91.37
2022-12-24T03:59:20.195Z,91.14
2022-12-24T04:04:21.799Z,91.39
2022-12-24T04:09:23.443Z,90.93
2022-12-24T04:14:25.280Z,91.37
2022-12-24T04:19:26.969Z,91.07
2022-12-24T04:24:28.638Z,89.13
2022-12-24T04:29:30.267Z,88.47
2022-12-24T04:34:31.999Z,88.41
2022-12-24T04:39:33.643Z,87.26
2022-12-24T04:44:35.266Z,86.75
2022-12-24T04:49:36.835Z,85.25
2022-12-24T04:54:38.476Z,84.25
2022-12-24T04:59:40.114Z,84.67
2022-12-24T05:04:41.857Z,84.72
2022-12-24T05:09:43.438Z,84.04
2022-12-24T05:14:45.075Z,84.36
2022-12-24T05:19:46.699Z,84.75
2022-12-24T05:25:06.572Z,85.29
2022-12-24T05:30:08.934Z,85.99
2022-12-24T05:35:10.611Z,86.29
2022-12-24T05:40:12.303Z,86.98
2022-12-24T05:45:13.970Z,86.42
2022-12-24T05:50:15.617Z,85.13
2022-12-24T05:55:17.283Z,85.51
2022-12-24T06:00:19.332Z,84.75
2022-12-24T06:05:21.153Z,84.43
2022-12-24T06:10:23.275Z,84.21
2022-12-24T06:15:24.943Z,84.25
2022-12-24T06:20:26.572Z,84.46
2022-12-24T06:25:28.229Z,84.86
2022-12-24T06:30:29.812Z,84.86
2022-12-24T06:35:32.437Z,84.11
2022-12-24T06:40:34.040Z,83.70
2022-12-24T06:45:35.665Z,83.09
2022-12-24T06:50:37.271Z,81.48
2022-12-24T06:55:39.808Z,80.80
2022-12-24T07:00:41.446Z,79.99
2022-12-24T07:05:43.107Z,79.40
2022-12-24T07:10:49.067Z,77.92
2022-12-24T07:16:03.385Z,78.35
2022-12-24T07:21:05.623Z,78.75
2022-12-24T07:26:07.527Z,76.96
2022-12-24T07:31:09.250Z,77.06
2022-12-24T07:36:16.095Z,76.44
2022-12-24T07:41:17.689Z,74.68
2022-12-24T07:46:19.357Z,75.25
2022-12-24T07:51:21.054Z,73.88
2022-12-24T07:56:22.782Z,75.38
2022-12-24T08:01:24.479Z,74.83
2022-12-24T08:06:26.219Z,75.19
2022-12-24T08:11:27.826Z,75.74
2022-12-24T08:16:29.529Z,77.30
2022-12-24T08:21:31.195Z,77.86
2022-12-24T08:26:32.831Z,78.67
2022-12-24T08:31:37.545Z,78.74
2022-12-24T08:36:39.250Z,79.02
2022-12-24T08:41:40.867Z,78.95
2022-12-24T08:46:42.635Z,78.72
2022-12-24T08:51:44.310Z,78.18
2022-12-24T08:56:45.936Z,78.64
2022-12-24T09:01:47.840Z,78.25
2022-12-24T09:06:49.687Z,77.96
2022-12-24T09:11:51.416Z,76.26
2022-12-24T09:16:53.094Z,76.62
2022-12-24T09:21:55.194Z,76.04
2022-12-24T09:26:58.307Z,76.57
2022-12-24T09:32:00.072Z,76.55
2022-12-24T09:37:03.105Z,73.49
2022-12-24T09:42:28.560Z,72.80
2022-12-24T09:47:40.111Z,72.88
2022-12-24T09:52:44.163Z,71.41
2022-12-24T09:57:47.712Z,71.28
2022-12-24T10:02:50.028Z,72.13
2022-12-24T10:08:09.722Z,71.37
2022-12-24T10:13:20.504Z,71.96
2022-12-24T10:18:34.920Z,71.80
2022-12-24T10:23:54.875Z,72.08
2022-12-24T10:28:57.300Z,71.96
2022-12-24T10:34:03.545Z,73.17
2022-12-24T10:39:05.248Z,73.29
2022-12-24T10:44:12.132Z,73.07
2022-12-24T10:49:20.179Z,72.19
2022-12-24T10:54:27.701Z,72.32
2022-12-24T10:59:30.972Z,71.96
2022-12-24T11:04:33.260Z,71.09
2022-12-24T11:09:37.956Z,72.48
2022-12-24T11:14:40.143Z,72.61
2022-12-24T11:19:48.793Z,73.39
2022-12-24T11:25:19.221Z,73.63
2022-12-24T11:30:31.769Z,74.06
2022-12-24T11:35:34.554Z,73.58
2022-12-24T11:40:42.501Z,73.82
2022-12-24T11:45:55.831Z,74.28
2022-12-24T11:51:01.307Z,75.26
2022-12-24T11:56:07.251Z,75.73
2022-12-24T12:01:25.120Z,75.89
2022-12-24T12:06:46.885Z,75.84
2022-12-24T12:11:52.835Z,75.84
2022-12-24T12:17:12.947Z,76.68
2022-12-24T12:23:02.732Z,76.40
2022-12-24T12:28:16.487Z,76.67
2022-12-24T12:33:31.650Z,76.74
2022-12-24T12:38:33.288Z,76.37
2022-12-24T12:44:02.296Z,76.83
2022-12-24T12:49:28.236Z,77.36
2022-12-24T12:54:43.938Z,77.48
2022-12-24T13:00:06.552Z,78.22
2022-12-24T13:05:25.745Z,78.20
2022-12-24T13:10:52.118Z,78.71
2022-12-24T13:16:09.010Z,78.25
2022-12-24T13:21:18.867Z,78.12
2022-12-24T13:26:20.580Z,77.50
2022-12-24T13:31:24.656Z,76.77
2022-12-24T13:37:03.942Z,77.24
2022-12-24T13:42:06.932Z,77.10
2022-12-24T13:47:14.546Z,77.14
2022-12-24T13:52:19.773Z,76.26
2022-12-24T13:57:40.049Z,76.71
2022-12-24T14:02:55.623Z,76.60
2022-12-24T14:07:58.859Z,76.54
2022-12-24T14:13:00.708Z,76.45
2022-12-24T14:18:02.490Z,75.80
2022-12-24T14:23:06.459Z,75.85
2022-12-24T14:28:17.347Z,76.79
2022-12-24T14:33:30.016Z,77.14
2022-12-24T14:38:32.443Z,77.14
2022-12-24T14:44:07.160Z,76.76
2022-12-24T14:49:38.425Z,76.92
2022-12-24T14:54:44.280Z,76.93
2022-12-24T14:59:50.710Z,77.11
2022-12-24T15:05:16.972Z,78.20
2022-12-24T15:10:31.459Z,78.07
2022-12-24T15:15:34.226Z,78.11
2022-12-24T15:20:36.477Z,77.94
2022-12-24T15:25:38.181Z,78.11
2022-12-24T15:30:40.282Z,78.36
2022-12-24T15:35:55.736Z,78.45
2022-12-24T15:40:58.263Z,79.26
2022-12-24T15:46:00.501Z,80.69
2022-12-24T15:51:03.106Z,80.77
2022-12-24T15:56:09.179Z,81.09
2022-12-24T16:01:13.898Z,80.72
2022-12-24T16:06:16.024Z,80.00
2022-12-24T16:11:19.575Z,80.58
2022-12-24T16:16:35.696Z,81.77
2022-12-24T16:21:41.510Z,82.53
2022-12-24T16:26:43.177Z,83.20
2022-12-24T16:31:53.240Z,83.73
2022-12-24T16:36:55.821Z,83.47
2022-12-24T16:42:18.131Z,83.32
2022-12-24T16:47:22.832Z,83.61
2022-12-24T16:52:28.503Z,83.13
2022-12-24T16:57:33.822Z,83.53
2022-12-24T17:02:35.702Z,83.90
2022-12-24T17:07:43.160Z,84.94
2022-12-24T17:12:45.663Z,85.16
2022-12-24T17:17:47.401Z,85.85
2022-12-24T17:22:49.553Z,86.47
2022-12-24T17:27:51.153Z,86.44
2022-12-24T17:32:52.761Z,87.20
2022-12-24T17:37:54.371Z,86.58
2022-12-24T17:42:56.014Z,86.59
2022-12-24T17:47:57.701Z,86.84
2022-12-24T17:52:59.437Z,87.14
2022-12-24T17:58:01.306Z,86.90
2022-12-24T18:03:03.074Z,87.26
2022-12-24T18:08:04.938Z,87.20
2022-12-24T18:13:07.177Z,87.89
2022-12-24T18:18:10.213Z,87.45
2022-12-24T18:23:12.078Z,87.21
2022-12-24T18:28:13.864Z,87.35
2022-12-24T18:33:15.608Z,87.81
2022-12-24T18:38:17.286Z,87.86
2022-12-24T18:43:19.325Z,88.48
2022-12-24T18:48:20.989Z,88.39
2022-12-24T18:53:22.835Z,88.52
2022-12-24T18:58:24.540Z,88.88
2022-12-24T19:03:26.198Z,88.06
2022-12-24T19:08:56.552Z,88.93
2022-12-24T19:13:49.891Z,88.60
2022-12-24T19:18:51.642Z,89.40
2022-12-24T19:23:53.260Z,88.28
2022-12-24T19:28:54.953Z,86.84
2022-12-24T19:33:57.011Z,86.00
2022-12-24T19:38:58.843Z,86.15
2022-12-24T19:44:01.612Z,86.09
2022-12-24T19:49:06.519Z,85.50
2022-12-24T19:54:14.883Z,84.80
2022-12-24T19:59:20.161Z,84.38
2022-12-24T20:04:22.164Z,85.78
2022-12-24T20:09:23.806Z,84.77
2022-12-24T20:14:25.409Z,83.74
2022-12-24T20:19:26.981Z,83.64
2022-12-24T20:24:28.695Z,83.12
2022-12-24T20:29:30.355Z,83.58
2022-12-24T20:34:32.013Z,83.74
2022-12-24T20:39:33.724Z,83.76
2022-12-24T20:44:35.319Z,83.10
2022-12-24T20:49:36.958Z,83.18
2022-12-24T20:54:38.549Z,83.84
2022-12-24T20:59:42.068Z,84.04
2022-12-24T21:04:45.136Z,83.69
2022-12-24T21:09:46.772Z,83.46
2022-12-24T21:14:48.416Z,83.81
2022-12-24T21:19:50.070Z,83.88
2022-12-24T21:24:53.972Z,84.48
2022-12-24T21:29:56.127Z,84.26
2022-12-24T21:34:57.716Z,84.12
2022-12-24T21:39:59.345Z,84.98
2022-12-24T21:45:02.097Z,84.35
2022-12-24T21:50:26.830Z,85.09
2022-12-24T21:55:33.345Z,84.29
2022-12-24T22:00:35.394Z,84.13
2022-12-24T22:05:37.048Z,83.74
2022-12-24T22:10:57.665Z,84.64
2022-12-24T22:15:59.357Z,84.38
2022-12-24T22:21:02.461Z,84.77
2022-12-24T22:26:14.591Z,84.52
2022-12-24T22:31:21.651Z,84.91
2022-12-24T22:36:23.457Z,84.49
2022-12-24T22:41:25.246Z,84.97
2022-12-24T22:46:26.875Z,85.19
2022-12-24T22:51:28.499Z,85.34
2022-12-24T22:56:32.028Z,86.10
2022-12-24T23:01:39.546Z,85.68
2022-12-24T23:06:41.607Z,86.07
2022-12-24T23:11:44.141Z,86.63
2022-12-24T23:16:45.751Z,86.04
2022-12-24T23:21:47.482Z,85.78
2022-12-24T23:26:50.170Z,85.76
2022-12-24T23:31:51.940Z,85.62
2022-12-24T23:36:53.608Z,86.61
2022-12-24T23:41:55.318Z,86.06
2022-12-24T23:46:56.959Z,86.38
2022-12-24T23:51:58.604Z,87.29
2022-12-24T23:57:00.290Z,87.71
